Time;durP1;ratioP1;P1;durP2;ratioP2;P2;SDS_P1;SDS_P2;PMS_P1;PMS_P2;Temp;Humidity;BMP_temperature;BMP_pressure;BME280_temperature;BME280_humidity;BME280_pressure;Samples;Min_cycle;Max_cycle;Signal;HPM_P1;HPM_P2
2022/03/31 00:00:49;;;;;;;4.20;2.30;;;;;;;2.22;79.08;99542.34;104973;1276;73801;-70
2022/03/31 00:03:18;;;;;;;5.50;2.40;;;;;;;2.17;78.97;99540.67;104960;1276;62893;-71
2022/03/31 00:05:48;;;;;;;9.40;2.20;;;;;;;2.13;79.23;99539.55;104973;1277;61909;-70
2022/03/31 00:08:17;;;;;;;4.20;1.90;;;;;;;2.09;79.31;99544.82;104941;1277;75051;-73
2022/03/31 00:10:45;;;;;;;11.00;3.10;;;;;;;2.04;79.28;99537.77;105045;1274;70337;-72
2022/03/31 00:13:22;;;;;;;4.50;2.20;;;;;;;2.00;79.53;99538.64;104897;1278;73309;-73
2022/03/31 00:15:49;;;;;;;3.90;1.60;;;;;;;1.98;79.65;99538.36;105026;1277;61596;-70
2022/03/31 00:18:17;;;;;;;5.70;2.50;;;;;;;1.95;79.60;99535.68;104899;1276;61679;-71
2022/03/31 00:20:44;;;;;;;4.60;2.50;;;;;;;1.92;79.81;99534.39;104986;1276;75638;-74
2022/03/31 00:23:11;;;;;;;6.70;3.10;;;;;;;1.91;79.90;99535.73;105027;1276;71382;-72
2022/03/31 00:25:38;;;;;;;5.80;2.60;;;;;;;1.90;80.00;99539.16;104908;1275;74033;-72
2022/03/31 00:28:05;;;;;;;7.70;2.30;;;;;;;1.89;80.11;99530.88;104966;1276;62509;-71
2022/03/31 00:30:33;;;;;;;5.30;2.40;;;;;;;1.90;80.21;99531.67;105030;1276;61242;-72
2022/03/31 00:33:03;;;;;;;2.70;1.60;;;;;;;1.91;80.31;99527.75;105024;1276;74705;-74
2022/03/31 00:35:30;;;;;;;3.90;2.50;;;;;;;1.92;80.51;99528.84;105082;1276;70471;-70
2022/03/31 00:37:58;;;;;;;4.70;2.30;;;;;;;1.93;80.82;99523.11;105092;1277;72729;-71
2022/03/31 00:40:25;;;;;;;6.80;2.60;;;;;;;1.96;81.00;99527.91;105133;1276;61255;-71
2022/03/31 00:42:54;;;;;;;3.70;1.80;;;;;;;1.99;81.08;99523.98;105174;1276;61774;-71
2022/03/31 00:45:23;;;;;;;4.10;2.00;;;;;;;2.01;81.10;99522.98;105143;1276;76171;-71
2022/03/31 00:47:51;;;;;;;4.00;2.20;;;;;;;2.03;81.20;99517.63;105700;1275;72374;-72
2022/03/31 00:50:26;;;;;;;3.20;1.80;;;;;;;2.06;80.92;99516.49;105091;1276;73995;-72
2022/03/31 00:52:53;;;;;;;5.40;2.20;;;;;;;2.09;80.80;99515.05;105836;1275;61587;-72
2022/03/31 00:55:41;;;;;;;3.80;2.10;;;;;;;2.10;80.63;99514.54;105236;1277;63378;-72
2022/03/31 00:58:09;;;;;;;4.70;2.30;;;;;;;2.12;80.66;99514.73;105259;1275;75967;-71
2022/03/31 01:00:36;;;;;;;3.20;2.10;;;;;;;2.12;80.44;99512.95;105287;1276;72387;-72
2022/03/31 01:03:03;;;;;;;4.30;2.10;;;;;;;2.11;80.54;99512.85;105120;1276;74233;-71
2022/03/31 01:05:35;;;;;;;4.20;2.60;;;;;;;2.10;80.66;99510.48;105243;1276;62614;-71
2022/03/31 01:08:02;;;;;;;5.00;2.20;;;;;;;2.08;80.93;99506.22;105408;1277;61481;-73
2022/03/31 01:10:29;;;;;;;4.50;2.30;;;;;;;2.09;80.57;99507.20;105328;1277;74982;-71
2022/03/31 01:12:55;;;;;;;6.50;3.40;;;;;;;2.07;80.69;99506.85;105440;1276;71053;-73
2022/03/31 01:15:22;;;;;;;8.60;2.90;;;;;;;2.05;80.74;99505.44;105242;1277;72948;-72
2022/03/31 01:17:49;;;;;;;6.70;2.70;;;;;;;2.03;80.69;99502.64;105120;1276;61277;-73
2022/03/31 01:20:21;;;;;;;5.60;3.40;;;;;;;2.01;80.50;99506.35;105182;1276;61321;-69
2022/03/31 01:22:50;;;;;;;10.80;3.80;;;;;;;1.97;80.47;99503.95;105235;1276;75883;-71
2022/03/31 01:25:18;;;;;;;6.40;2.90;;;;;;;1.95;80.45;99499.75;106262;1276;70952;-72
2022/03/31 01:27:46;;;;;;;8.30;3.10;;;;;;;1.93;80.43;99498.06;105232;1276;73976;-70
2022/03/31 01:30:19;;;;;;;7.30;3.40;;;;;;;1.90;80.42;99495.25;105198;1274;61274;-71
2022/03/31 01:32:46;;;;;;;4.10;2.20;;;;;;;1.85;80.91;99492.52;105697;1276;61753;-70
2022/03/31 01:35:13;;;;;;;5.40;2.10;;;;;;;1.81;81.13;99484.55;105146;1276;75128;-71
2022/03/31 01:37:41;;;;;;;5.70;2.60;;;;;;;1.77;81.24;99480.10;105243;1274;70815;-71
2022/03/31 01:40:10;;;;;;;6.60;2.50;;;;;;;1.72;81.43;99482.79;105052;1276;73033;-73
2022/03/31 01:42:37;;;;;;;5.10;2.80;;;;;;;1.68;81.62;99480.45;106127;1276;61307;-73
2022/03/31 01:45:07;;;;;;;7.10;3.50;;;;;;;1.65;81.63;99480.55;105147;1276;61251;-71
2022/03/31 01:47:37;;;;;;;6.50;2.50;;;;;;;1.61;81.83;99480.55;105797;1276;77470;-72
2022/03/31 01:50:05;;;;;;;7.30;2.80;;;;;;;1.58;82.18;99482.06;105114;1276;71373;-71
2022/03/31 01:52:31;;;;;;;11.70;3.50;;;;;;;1.55;82.14;99477.48;105253;1276;72895;-72
2022/03/31 01:54:58;;;;;;;11.60;3.60;;;;;;;1.52;82.08;99475.98;105305;1276;61311;-71
2022/03/31 01:57:24;;;;;;;4.90;2.60;;;;;;;1.50;82.42;99479.02;105198;1276;61329;-69
2022/03/31 01:59:51;;;;;;;6.60;3.00;;;;;;;1.48;82.70;99476.26;106267;1276;75906;-71
2022/03/31 02:02:18;;;;;;;5.50;2.80;;;;;;;1.45;83.05;99474.40;105096;1277;72262;-72
2022/03/31 02:04:46;;;;;;;6.70;2.90;;;;;;;1.43;83.36;99470.42;105141;1276;73096;-71
2022/03/31 02:07:13;;;;;;;5.30;2.70;;;;;;;1.41;83.58;99475.70;105313;1276;61271;-70
2022/03/31 02:09:41;;;;;;;5.40;3.20;;;;;;;1.39;83.79;99475.30;105206;1277;61822;-71
2022/03/31 02:12:08;;;;;;;7.40;2.20;;;;;;;1.37;83.74;99475.31;105289;1274;76266;-70
2022/03/31 02:14:37;;;;;;;8.70;3.40;;;;;;;1.35;84.23;99472.20;105232;1274;71873;-71
2022/03/31 02:17:05;;;;;;;6.70;3.70;;;;;;;1.33;84.31;99469.95;106050;1276;72715;-72
2022/03/31 02:19:32;;;;;;;7.90;3.20;;;;;;;1.31;85.09;99468.75;107923;1274;61477;-73
2022/03/31 02:21:59;;;;;;;5.90;2.60;;;;;;;1.31;85.55;99468.42;105231;1276;61231;-72
2022/03/31 02:24:26;;;;;;;7.40;3.60;;;;;;;1.30;86.23;99466.63;105030;1276;75050;-72
2022/03/31 02:26:52;;;;;;;9.90;3.70;;;;;;;1.31;86.73;99463.95;105181;1276;71317;-74
2022/03/31 02:29:19;;;;;;;8.90;4.30;;;;;;;1.31;87.72;99460.58;105305;1274;72785;-72
2022/03/31 02:32:07;;;;;;;7.00;4.10;;;;;;;1.33;88.54;99458.18;105312;1276;61551;-72
2022/03/31 02:34:35;;;;;;;15.10;7.00;;;;;;;1.34;89.37;99457.55;105108;1276;61280;-70
2022/03/31 02:37:03;;;;;;;10.40;4.40;;;;;;;1.35;89.56;99454.76;105121;1276;74553;-72
2022/03/31 02:39:29;;;;;;;12.10;5.80;;;;;;;1.37;89.50;99454.83;105117;1277;72637;-71
2022/03/31 02:41:57;;;;;;;12.60;5.10;;;;;;;1.37;89.43;99455.17;105119;1276;74110;-71
2022/03/31 02:44:24;;;;;;;12.50;5.40;;;;;;;1.37;89.44;99451.86;105177;1276;61278;-71
2022/03/31 02:46:54;;;;;;;10.30;5.10;;;;;;;1.37;89.64;99455.63;105119;1276;61315;-72
2022/03/31 02:49:20;;;;;;;11.70;5.60;;;;;;;1.37;89.57;99458.27;105290;1274;75006;-72
2022/03/31 02:51:47;;;;;;;10.70;4.90;;;;;;;1.36;89.69;99457.48;105238;1276;72405;-72
2022/03/31 02:56:59;;;;;;;;;;;;;;;1.37;90.05;99449.55;105268;1276;61407;-71
2022/03/31 02:59:30;;;;;;;8.60;4.80;;;;;;;1.36;90.38;99444.73;105401;1276;61390;-72
2022/03/31 03:01:58;;;;;;;11.00;5.90;;;;;;;1.37;90.24;99445.68;105427;1276;74927;-71
2022/03/31 03:04:25;;;;;;;14.20;6.60;;;;;;;1.37;90.42;99444.85;105379;1276;70246;-70
2022/03/31 03:06:51;;;;;;;11.10;5.70;;;;;;;1.37;90.57;99447.46;105513;1276;61255;-71
2022/03/31 03:09:19;;;;;;;13.50;6.10;;;;;;;1.37;90.55;99445.55;105480;1275;61332;-73
2022/03/31 03:11:46;;;;;;;7.90;4.40;;;;;;;1.36;90.80;99444.91;105565;1274;61482;-72
2022/03/31 03:14:15;;;;;;;10.50;5.70;;;;;;;1.37;90.92;99445.20;105838;1276;76046;-70
2022/03/31 03:16:42;;;;;;;10.10;5.60;;;;;;;1.37;91.01;99442.73;106073;1276;72552;-73
2022/03/31 03:19:09;;;;;;;10.00;5.30;;;;;;;1.38;91.07;99442.02;106574;1275;72728;-70
2022/03/31 03:21:36;;;;;;;11.10;6.00;;;;;;;1.39;91.15;99439.31;105319;1277;62384;-71
2022/03/31 03:24:03;;;;;;;7.40;4.50;;;;;;;1.40;91.42;99439.38;105307;1274;61832;-72
2022/03/31 03:26:30;;;;;;;9.70;5.30;;;;;;;1.41;91.48;99439.44;105158;1276;76399;-72
2022/03/31 03:28:57;;;;;;;10.50;5.90;;;;;;;1.42;92.07;99441.44;105131;1276;70524;-72
2022/03/31 03:31:24;;;;;;;9.00;5.30;;;;;;;1.43;91.98;99437.48;104999;1276;72664;-71
2022/03/31 03:33:50;;;;;;;9.30;4.50;;;;;;;1.45;92.33;99434.67;105085;1275;62165;-69
2022/03/31 03:36:17;;;;;;;8.50;4.80;;;;;;;1.48;92.71;99430.56;105082;1276;61145;-70
2022/03/31 03:38:45;;;;;;;9.10;4.50;;;;;;;1.50;93.05;99429.80;105702;1275;76016;-70
2022/03/31 03:41:13;;;;;;;11.60;5.10;;;;;;;1.53;93.39;99430.64;106780;1275;71529;-69
2022/03/31 03:43:40;;;;;;;8.70;5.30;;;;;;;1.56;93.27;99432.61;105115;1276;72998;-71
2022/03/31 03:46:10;;;;;;;7.30;4.60;;;;;;;1.59;93.51;99436.66;105166;1276;61634;-71
2022/03/31 03:48:37;;;;;;;7.50;4.30;;;;;;;1.62;93.71;99443.15;105519;1276;61382;-70
2022/03/31 03:51:09;;;;;;;8.30;4.70;;;;;;;1.66;93.71;99440.93;105024;1276;76003;-71
2022/03/31 03:53:36;;;;;;;8.60;5.60;;;;;;;1.68;93.72;99441.18;105121;1276;72982;-72
2022/03/31 03:56:05;;;;;;;11.40;6.90;;;;;;;1.72;94.15;99442.06;104958;1275;74106;-70
2022/03/31 03:58:32;;;;;;;9.00;5.40;;;;;;;1.75;94.00;99440.39;104876;1276;61417;-74
2022/03/31 04:00:58;;;;;;;11.00;6.50;;;;;;;1.76;94.60;99440.21;105109;1276;61239;-69
2022/03/31 04:03:25;;;;;;;11.70;6.80;;;;;;;1.79;95.47;99444.63;104946;1276;75947;-73
2022/03/31 04:05:54;;;;;;;13.50;7.00;;;;;;;1.83;96.21;99440.64;104962;1276;71515;-71
2022/03/31 04:09:11;;;;;;;;;;;;;;;;;;;;;
2022/03/31 04:12:03;;;;;;;11.80;6.70;;;;;;;1.93;97.47;99448.70;104800;1276;62121;-72
2022/03/31 04:14:49;;;;;;;11.90;7.60;;;;;;;1.99;97.63;99450.20;105024;1276;61287;-71
2022/03/31 04:17:28;;;;;;;14.40;7.30;;;;;;;2.07;97.96;99456.40;105212;1274;75316;-72
2022/03/31 04:19:55;;;;;;;13.60;5.80;;;;;;;2.14;97.96;99455.03;104992;1276;71607;-73
2022/03/31 04:23:03;;;;;;;14.00;5.60;;;;;;;2.18;98.08;99454.23;104928;1276;74138;-73
2022/03/31 04:25:29;;;;;;;17.10;7.50;;;;;;;2.25;97.78;99446.77;104858;1276;61933;-70
2022/03/31 04:28:29;;;;;;;17.70;9.30;;;;;;;2.30;97.34;99438.82;104935;1276;61653;-70
2022/03/31 04:31:17;;;;;;;19.10;9.30;;;;;;;2.34;97.08;99439.45;105120;1274;75012;-72
2022/03/31 04:34:14;;;;;;;;;;;;;;;;;;;;;
2022/03/31 04:37:22;;;;;;;;;;;;;;;;;;;;;
2022/03/31 04:40:34;;;;;;;16.30;8.60;;;;;;;2.45;96.08;99446.04;105037;1276;62332;-70
2022/03/31 04:43:43;;;;;;;17.60;8.30;;;;;;;2.48;95.42;99444.19;104922;1276;62551;-73
2022/03/31 04:46:53;;;;;;;;;;;;;;;;;;;;;
2022/03/31 04:49:20;;;;;;;13.30;7.70;;;;;;;2.52;94.53;99449.13;105101;1276;71499;-74
2022/03/31 04:51:50;;;;;;;12.90;7.40;;;;;;;2.54;94.40;99450.86;105103;1276;73974;-72
2022/03/31 04:54:45;;;;;;;14.50;8.00;;;;;;;2.56;94.09;99453.45;105020;1276;61441;-71
2022/03/31 04:57:18;;;;;;;13.50;7.60;;;;;;;2.58;93.86;99452.71;104972;1276;61253;-72
2022/03/31 04:59:45;;;;;;;18.30;8.30;;;;;;;2.60;93.51;99456.05;104890;1276;76137;-71
2022/03/31 05:02:52;;;;;;;14.70;7.40;;;;;;;2.62;93.39;99454.64;105043;1276;72678;-72
2022/03/31 05:05:39;;;;;;;13.80;7.50;;;;;;;2.64;92.85;99450.93;105061;1275;74153;-73
2022/03/31 05:08:06;;;;;;;11.60;6.80;;;;;;;2.66;92.83;99453.86;104945;1277;61300;-74
2022/03/31 05:10:36;;;;;;;12.70;7.70;;;;;;;2.67;92.65;99451.48;104976;1275;61250;-71
2022/03/31 05:13:03;;;;;;;12.80;7.10;;;;;;;2.69;92.36;99451.48;104968;1277;76248;-72
2022/03/31 05:15:38;;;;;;;12.50;6.70;;;;;;;2.71;91.91;99452.55;104992;1276;72592;-70
2022/03/31 05:18:25;;;;;;;20.50;8.70;;;;;;;2.73;91.86;99450.08;104892;1276;72911;-70
2022/03/31 05:20:52;;;;;;;12.40;6.70;;;;;;;2.76;91.80;99449.94;104952;1276;62832;-71
2022/03/31 05:23:19;;;;;;;19.50;9.10;;;;;;;2.77;91.15;99447.71;105219;1276;61346;-70
2022/03/31 05:25:45;;;;;;;13.20;7.30;;;;;;;2.78;91.05;99451.37;105170;1274;74941;-71
2022/03/31 05:28:15;;;;;;;19.10;11.20;;;;;;;2.80;90.43;99447.75;105116;1274;72404;-71
2022/03/31 05:30:43;;;;;;;19.80;9.80;;;;;;;2.81;90.08;99446.22;104977;1275;74017;-70
2022/03/31 05:33:24;;;;;;;19.50;10.80;;;;;;;2.83;89.83;99449.02;105146;1276;61249;-74
2022/03/31 05:35:52;;;;;;;16.80;9.90;;;;;;;2.85;89.98;99448.64;105179;1276;61768;-71
2022/03/31 05:38:19;;;;;;;21.90;10.10;;;;;;;2.87;90.07;99445.67;105067;1275;74913;-73
2022/03/31 05:40:50;;;;;;;15.80;7.40;;;;;;;2.90;90.02;99449.37;105039;1275;73069;-72
2022/03/31 05:43:23;;;;;;;16.00;9.10;;;;;;;2.95;89.87;99457.56;104861;1276;74384;-72
2022/03/31 05:45:53;;;;;;;23.60;10.40;;;;;;;2.99;89.75;99458.55;105027;1274;61699;-74
2022/03/31 05:48:19;;;;;;;19.30;10.50;;;;;;;3.04;89.46;99464.73;104863;1276;61637;-75
2022/03/31 05:50:46;;;;;;;17.60;9.00;;;;;;;3.05;89.15;99463.09;105025;1276;74971;-74
2022/03/31 05:53:13;;;;;;;24.60;11.60;;;;;;;3.06;88.79;99466.98;105016;1276;72427;-71
2022/03/31 05:56:01;;;;;;;15.20;8.10;;;;;;;3.07;88.82;99468.95;104911;1276;74024;-76
2022/03/31 05:58:31;;;;;;;18.90;9.50;;;;;;;3.08;88.43;99479.79;105023;1276;61244;-76
2022/03/31 06:01:01;;;;;;;18.60;9.90;;;;;;;3.09;88.12;99483.06;104978;1276;61240;-72
2022/03/31 06:03:31;;;;;;;16.90;8.30;;;;;;;3.09;88.04;99484.84;105076;1276;76038;-75
2022/03/31 06:05:58;;;;;;;17.50;9.30;;;;;;;3.08;87.78;99484.04;104831;1276;71236;-74
2022/03/31 06:08:25;;;;;;;21.00;11.50;;;;;;;3.07;88.03;99482.93;104928;1276;72182;-71
2022/03/31 06:11:01;;;;;;;17.70;8.90;;;;;;;3.06;87.70;99479.34;104950;1274;61668;-71
2022/03/31 06:13:30;;;;;;;21.00;9.80;;;;;;;3.06;87.99;99477.59;104968;1274;61222;-71
2022/03/31 06:15:57;;;;;;;18.30;9.80;;;;;;;3.04;87.82;99476.40;104921;1274;75146;-72
2022/03/31 06:18:27;;;;;;;23.10;11.00;;;;;;;3.03;87.90;99477.55;104861;1276;71409;-71
2022/03/31 06:20:54;;;;;;;21.20;10.90;;;;;;;3.04;87.70;99482.05;104927;1276;73614;-71
2022/03/31 06:23:25;;;;;;;22.20;10.60;;;;;;;3.04;87.87;99484.10;104886;1276;62364;-72
2022/03/31 06:25:55;;;;;;;25.40;12.00;;;;;;;3.03;87.59;99485.23;104834;1276;61355;-72
2022/03/31 06:28:24;;;;;;;25.90;13.60;;;;;;;3.03;87.21;99489.63;104866;1276;75949;-69
2022/03/31 06:30:51;;;;;;;20.90;10.60;;;;;;;3.04;87.02;99489.01;104900;1274;72753;-69
2022/03/31 06:33:20;;;;;;;26.20;12.90;;;;;;;3.05;86.80;99487.52;104915;1276;73121;-73
2022/03/31 06:35:49;;;;;;;24.10;11.90;;;;;;;3.05;86.64;99487.77;104832;1277;61456;-74
2022/03/31 06:38:15;;;;;;;22.20;11.80;;;;;;;3.08;85.95;99489.77;104932;1275;61376;-72
2022/03/31 06:41:06;;;;;;;22.30;10.90;;;;;;;3.11;85.75;99491.27;104930;1276;75987;-70
2022/03/31 06:43:31;;;;;;;22.50;11.50;;;;;;;3.13;85.92;99491.20;105009;1275;71481;-72
2022/03/31 06:45:57;;;;;;;21.70;11.50;;;;;;;3.15;85.86;99491.29;104883;1276;73970;-71
2022/03/31 06:48:36;;;;;;;23.40;11.00;;;;;;;3.18;85.51;99491.04;104807;1276;61540;-71
2022/03/31 06:51:26;;;;;;;20.30;9.40;;;;;;;3.20;85.56;99490.63;104936;1276;61223;-68
2022/03/31 06:54:03;;;;;;;14.90;7.70;;;;;;;3.21;84.89;99485.61;104893;1274;74146;-68
2022/03/31 06:56:31;;;;;;;14.20;7.40;;;;;;;3.25;84.74;99487.20;104877;1276;71528;-71
2022/03/31 06:59:01;;;;;;;15.40;7.00;;;;;;;3.30;84.72;99484.24;104880;1274;74155;-71
2022/03/31 07:01:28;;;;;;;11.70;6.00;;;;;;;3.36;84.67;99485.58;105057;1276;61485;-70
2022/03/31 07:03:55;;;;;;;10.40;4.60;;;;;;;3.41;84.44;99490.11;104854;1276;61281;-74
2022/03/31 07:06:23;;;;;;;16.60;9.60;;;;;;;3.44;84.08;99491.40;104735;1276;75982;-72
2022/03/31 07:08:52;;;;;;;15.50;7.30;;;;;;;3.44;84.26;99492.55;104848;1276;72283;-72
2022/03/31 07:11:22;;;;;;;13.20;7.40;;;;;;;3.44;84.28;99490.16;104912;1274;71699;-72
2022/03/31 07:13:52;;;;;;;12.30;6.60;;;;;;;3.45;84.33;99490.73;104782;1276;61740;-73
2022/03/31 07:16:22;;;;;;;12.20;6.70;;;;;;;3.46;83.75;99492.86;104779;1276;61853;-70
2022/03/31 07:18:52;;;;;;;8.40;5.10;;;;;;;3.49;83.78;99490.96;104822;1276;77199;-70
2022/03/31 07:21:18;;;;;;;8.00;5.20;;;;;;;3.55;83.17;99490.16;104956;1275;71368;-72
2022/03/31 07:23:50;;;;;;;8.40;4.50;;;;;;;3.64;82.79;99494.88;104881;1275;61234;-71
2022/03/31 07:26:18;;;;;;;5.90;3.50;;;;;;;3.75;81.99;99498.88;104828;1275;62026;-71
2022/03/31 07:28:44;;;;;;;7.40;3.70;;;;;;;3.79;80.36;99492.92;104825;1274;61729;-74
2022/03/31 07:31:15;;;;;;;7.00;3.70;;;;;;;3.94;80.07;99504.36;104859;1276;75994;-71
2022/03/31 07:33:42;;;;;;;5.80;4.00;;;;;;;4.03;78.59;99506.41;104827;1277;72614;-69
2022/03/31 07:36:09;;;;;;;9.50;4.50;;;;;;;4.10;77.55;99509.99;104806;1276;74265;-72
2022/03/31 07:38:39;;;;;;;12.80;4.50;;;;;;;4.16;75.98;99512.04;104856;1277;61401;-72
2022/03/31 07:41:05;;;;;;;9.00;4.60;;;;;;;4.20;74.84;99510.89;104849;1276;61363;-72
2022/03/31 07:43:36;;;;;;;10.00;4.90;;;;;;;4.25;73.64;99512.96;104796;1276;74906;-73
2022/03/31 07:46:05;;;;;;;7.40;3.70;;;;;;;4.32;73.70;99512.38;104960;1276;70768;-71
2022/03/31 07:48:33;;;;;;;8.30;4.10;;;;;;;4.39;72.44;99513.95;104943;1276;72942;-70
2022/03/31 07:50:59;;;;;;;13.90;5.10;;;;;;;4.44;71.48;99512.90;104799;1275;61428;-71
2022/03/31 07:53:27;;;;;;;6.90;4.00;;;;;;;4.50;71.86;99512.02;104845;1276;61796;-73
2022/03/31 07:55:54;;;;;;;10.00;5.30;;;;;;;4.60;71.31;99518.58;104787;1276;74923;-72
2022/03/31 07:58:23;;;;;;;8.70;4.80;;;;;;;4.69;71.24;99522.48;104882;1276;72623;-71
2022/03/31 08:00:52;;;;;;;9.00;5.50;;;;;;;4.78;70.42;99520.03;104703;1276;72979;-72
2022/03/31 08:03:19;;;;;;;10.30;5.00;;;;;;;4.88;69.80;99521.15;104910;1276;61437;-71
2022/03/31 08:05:46;;;;;;;9.60;5.00;;;;;;;4.97;69.43;99516.09;104893;1275;61340;-71
2022/03/31 08:08:13;;;;;;;7.20;4.20;;;;;;;5.06;69.21;99519.13;104830;1276;75946;-73
2022/03/31 08:10:40;;;;;;;9.20;5.80;;;;;;;5.08;67.90;99514.37;104734;1276;71403;-71
2022/03/31 08:13:08;;;;;;;11.40;5.50;;;;;;;5.11;67.17;99509.02;104807;1276;72988;-71
2022/03/31 08:15:37;;;;;;;8.60;5.40;;;;;;;5.14;67.23;99516.55;104905;1276;61210;-69
2022/03/31 08:18:05;;;;;;;8.10;4.70;;;;;;;5.23;67.37;99516.75;104841;1276;61363;-73
2022/03/31 08:20:32;;;;;;;10.10;5.90;;;;;;;5.32;66.61;99517.69;104860;1276;75032;-73
2022/03/31 08:22:59;;;;;;;9.00;5.90;;;;;;;5.40;65.72;99519.73;104796;1276;71497;-69
2022/03/31 08:25:26;;;;;;;7.80;5.10;;;;;;;5.47;65.39;99519.16;104828;1276;72982;-72
2022/03/31 08:27:52;;;;;;;10.30;6.00;;;;;;;5.48;64.62;99518.83;104938;1276;61273;-74
2022/03/31 08:30:21;;;;;;;9.80;5.90;;;;;;;5.49;64.50;99522.95;104869;1277;61122;-74
2022/03/31 08:32:48;;;;;;;13.10;6.20;;;;;;;5.49;64.15;99518.39;104942;1277;76286;-74
2022/03/31 08:35:17;;;;;;;9.90;5.60;;;;;;;5.51;64.03;99515.00;104888;1276;72448;-72
2022/03/31 08:37:44;;;;;;;8.50;6.00;;;;;;;5.56;64.10;99513.23;104790;1276;74368;-69
2022/03/31 08:40:12;;;;;;;10.20;6.10;;;;;;;5.51;63.49;99509.58;104866;1276;61152;-72
2022/03/31 08:42:40;;;;;;;9.80;5.60;;;;;;;5.51;64.45;99508.69;104823;1276;61604;-73
2022/03/31 08:45:16;;;;;;;7.80;5.60;;;;;;;5.52;63.92;99510.43;104838;1276;74978;-70
2022/03/31 08:47:58;;;;;;;8.10;5.20;;;;;;;5.50;63.85;99517.77;104950;1275;71278;-70
2022/03/31 08:50:26;;;;;;;13.20;6.90;;;;;;;5.54;64.41;99518.59;104926;1276;72075;-69
2022/03/31 08:52:56;;;;;;;13.40;7.00;;;;;;;5.64;64.37;99515.36;104890;1276;61339;-72
2022/03/31 08:55:25;;;;;;;12.00;7.60;;;;;;;5.75;64.22;99515.91;104879;1277;62559;-72
2022/03/31 08:57:54;;;;;;;12.10;7.20;;;;;;;5.83;63.64;99513.94;104921;1275;74935;-71
2022/03/31 09:00:38;;;;;;;16.30;7.90;;;;;;;5.87;63.21;99514.40;104898;1277;71465;-73
2022/03/31 09:03:39;;;;;;;15.70;8.30;;;;;;;5.89;63.20;99519.52;104917;1276;74176;-73
2022/03/31 09:06:21;;;;;;;15.70;8.10;;;;;;;5.93;63.62;99522.10;104940;1277;61210;-73
2022/03/31 09:09:21;;;;;;;17.50;8.60;;;;;;;5.99;63.78;99519.73;105215;1276;61563;-75
2022/03/31 09:12:08;;;;;;;8.30;6.10;;;;;;;6.04;63.26;99519.73;104829;1276;75254;-71
2022/03/31 09:14:54;;;;;;;9.60;7.00;;;;;;;6.00;62.62;99516.83;105072;1276;70133;-70
2022/03/31 09:17:26;;;;;;;10.10;6.30;;;;;;;5.94;62.53;99520.39;105013;1277;71909;-74
2022/03/31 09:19:57;;;;;;;13.60;6.30;;;;;;;5.92;62.74;99521.34;105126;1276;61438;-73
2022/03/31 09:22:26;;;;;;;11.80;6.50;;;;;;;5.90;62.95;99518.00;105008;1277;61364;-71
2022/03/31 09:25:08;;;;;;;13.00;7.40;;;;;;;5.90;63.19;99515.43;105033;1277;75213;-72
2022/03/31 09:27:55;;;;;;;14.70;8.50;;;;;;;5.83;62.99;99515.02;105055;1275;71502;-74
2022/03/31 09:30:25;;;;;;;9.40;7.00;;;;;;;5.81;63.17;99515.35;104989;1276;73089;-69
2022/03/31 09:33:02;;;;;;;12.00;8.00;;;;;;;5.81;63.25;99512.79;104897;1276;61291;-70
2022/03/31 09:35:29;;;;;;;9.60;5.80;;;;;;;5.84;63.63;99519.48;104871;1277;61355;-72
2022/03/31 09:38:22;;;;;;;11.30;6.60;;;;;;;5.87;63.23;99517.16;104855;1276;75038;-70
2022/03/31 09:40:45;;;;;;;12.50;6.80;;;;;;;5.91;62.82;99520.95;104887;1276;70437;-73
2022/03/31 09:43:15;;;;;;;9.90;6.10;;;;;;;5.92;62.89;99517.46;104789;1277;72936;-70
2022/03/31 09:45:49;;;;;;;14.00;6.50;;;;;;;5.91;63.00;99516.19;104990;1276;61355;-69
2022/03/31 09:48:39;;;;;;;11.10;6.60;;;;;;;5.97;63.45;99524.46;104944;1276;61353;-71
2022/03/31 09:51:08;;;;;;;8.80;5.10;;;;;;;6.00;62.56;99525.16;105050;1276;75368;-71
2022/03/31 09:53:46;;;;;;;11.10;6.30;;;;;;;6.00;62.48;99528.53;104855;1277;71354;-70
2022/03/31 09:56:15;;;;;;;7.70;5.10;;;;;;;6.01;62.97;99529.19;104859;1276;73968;-71
2022/03/31 09:58:44;;;;;;;8.60;5.50;;;;;;;5.98;62.56;99527.20;104847;1276;61268;-71
2022/03/31 10:01:11;;;;;;;11.90;6.00;;;;;;;5.93;62.83;99523.55;104954;1276;61679;-69
2022/03/31 10:03:44;;;;;;;10.90;7.20;;;;;;;5.90;62.85;99521.52;104772;1276;74050;-72
2022/03/31 10:06:12;;;;;;;10.10;5.80;;;;;;;5.86;62.84;99517.66;104928;1277;72459;-72
2022/03/31 10:08:50;;;;;;;7.10;5.10;;;;;;;5.89;62.93;99519.75;104838;1276;71875;-73
2022/03/31 10:11:22;;;;;;;9.50;4.80;;;;;;;5.95;63.03;99521.55;104997;1276;61340;-71
2022/03/31 10:14:13;;;;;;;8.00;4.60;;;;;;;6.08;62.33;99520.12;105165;1276;61177;-73
2022/03/31 10:16:47;;;;;;;7.30;4.80;;;;;;;6.23;61.24;99515.90;104886;1276;74954;-70
2022/03/31 10:19:59;;;;;;;6.20;4.20;;;;;;;6.34;60.31;99517.79;104838;1276;71411;-71
2022/03/31 10:25:14;;;;;;;7.60;4.10;;;;;;;6.56;59.00;99515.45;104800;1276;61289;-71
2022/03/31 10:27:49;;;;;;;8.50;3.80;;;;;;;6.68;58.13;99513.05;104951;1276;61949;-70
2022/03/31 10:30:16;;;;;;;11.90;4.20;;;;;;;6.71;57.58;99507.50;104981;1276;74496;-69
2022/03/31 10:33:37;;;;;;;9.90;4.50;;;;;;;6.77;57.41;99503.89;104902;1276;72202;-71
2022/03/31 10:36:13;;;;;;;11.00;4.00;;;;;;;6.87;57.32;99502.55;104396;1282;72772;-68
2022/03/31 10:39:01;;;;;;;4.30;3.10;;;;;;;7.00;56.43;99500.38;104829;1276;61270;-70
2022/03/31 10:41:30;;;;;;;4.00;2.70;;;;;;;7.16;55.86;99497.73;104918;1276;61345;-73
2022/03/31 10:43:59;;;;;;;5.70;3.70;;;;;;;7.33;54.75;99493.33;104945;1276;75074;-70
2022/03/31 10:46:28;;;;;;;8.90;4.50;;;;;;;7.45;54.00;99488.69;104837;1276;71354;-71
2022/03/31 10:48:58;;;;;;;9.80;4.10;;;;;;;7.61;54.54;99499.03;104955;1276;72747;-70
2022/03/31 10:51:36;;;;;;;6.80;3.30;;;;;;;7.79;53.79;99492.89;105149;1276;61878;-71
2022/03/31 10:54:05;;;;;;;5.60;3.30;;;;;;;7.91;53.27;99492.38;104914;1276;61299;-70
2022/03/31 10:56:40;;;;;;;7.80;4.10;;;;;;;7.92;52.74;99483.61;104885;1276;74014;-71
2022/03/31 10:59:12;;;;;;;8.20;3.60;;;;;;;8.00;52.45;99489.75;104870;1277;71188;-67
2022/03/31 11:01:40;;;;;;;4.90;3.30;;;;;;;8.11;52.66;99481.48;105057;1276;75268;-70
2022/03/31 11:04:14;;;;;;;6.10;3.60;;;;;;;8.24;51.48;99479.65;105982;1275;60807;-73
2022/03/31 11:07:02;;;;;;;7.20;3.50;;;;;;;8.35;51.03;99480.96;105052;1276;61247;-70
2022/03/31 11:09:34;;;;;;;8.50;3.00;;;;;;;8.45;50.32;99488.09;105047;1276;74109;-71
2022/03/31 11:12:33;;;;;;;;;;;;;;;;;;;;;
2022/03/31 11:15:31;;;;;;;4.70;3.20;;;;;;;8.74;50.01;99488.21;104946;1276;71915;-73
2022/03/31 11:18:00;;;;;;;5.20;3.70;;;;;;;8.74;48.52;99471.98;105003;1277;61428;-71
2022/03/31 11:20:27;;;;;;;4.50;2.70;;;;;;;8.76;47.70;99474.76;104983;1274;61735;-72
2022/03/31 11:22:59;;;;;;;5.20;3.20;;;;;;;8.70;47.18;99471.11;104891;1276;73586;-73
2022/03/31 11:25:33;;;;;;;7.70;3.40;;;;;;;8.67;47.87;99470.20;104910;1277;72946;-70
2022/03/31 11:28:09;;;;;;;11.70;4.70;;;;;;;8.68;47.55;99467.92;104920;1276;71415;-71
2022/03/31 11:30:37;;;;;;;6.00;3.30;;;;;;;8.72;47.45;99467.02;104975;1277;61269;-69
2022/03/31 11:33:10;;;;;;;7.90;2.90;;;;;;;8.83;47.57;99469.98;104205;1277;1020748;-72
2022/03/31 11:35:41;;;;;;;9.50;3.80;;;;;;;8.91;46.73;99471.65;105061;1277;74958;-67
2022/03/31 11:38:17;;;;;;;7.70;2.80;;;;;;;8.93;46.04;99466.70;104966;1276;71587;-69
2022/03/31 11:40:47;;;;;;;5.70;2.90;;;;;;;8.95;45.49;99463.50;105236;1276;74289;-71
2022/03/31 11:43:19;;;;;;;5.70;2.80;;;;;;;8.97;45.48;99466.23;105114;1276;61726;-68
2022/03/31 11:45:53;;;;;;;6.90;3.10;;;;;;;9.03;45.26;99462.61;104942;1275;61249;-70
2022/03/31 11:48:33;;;;;;;8.80;3.70;;;;;;;9.02;44.57;99461.30;104955;1277;75988;-71
2022/03/31 11:51:18;;;;;;;4.30;2.60;;;;;;;9.00;45.17;99465.36;104936;1276;71557;-73
2022/03/31 11:53:47;;;;;;;6.80;3.40;;;;;;;9.04;44.80;99465.79;104869;1276;72664;-67
2022/03/31 11:56:18;;;;;;;5.80;2.60;;;;;;;9.14;44.78;99464.27;105104;1276;61386;-71
2022/03/31 11:58:55;;;;;;;4.80;2.70;;;;;;;9.23;44.30;99465.07;104935;1276;61205;-70
2022/03/31 12:01:32;;;;;;;6.90;3.40;;;;;;;9.27;43.61;99461.42;105191;1276;75110;-71
2022/03/31 12:04:03;;;;;;;9.10;3.30;;;;;;;9.17;43.39;99459.02;104893;1277;72392;-70
2022/03/31 12:06:36;;;;;;;6.60;2.90;;;;;;;9.10;44.14;99455.77;104911;1276;73867;-68